sensor_id;sensor_type;location;lat;lon;timestamp;P1;durP1;ratioP1;P2;durP2;ratioP2
35679;SDS011;21803;53.586;10.040;2023-02-04T00:00:17;3.75;;;1.08;;
35679;SDS011;21803;53.586;10.040;2023-02-04T00:02:44;2.17;;;1.00;;
35679;SDS011;21803;53.586;10.040;2023-02-04T00:05:11;1.75;;;0.80;;
35679;SDS011;21803;53.586;10.040;2023-02-04T00:07:37;1.75;;;0.85;;
35679;SDS011;21803;53.586;10.040;2023-02-04T00:10:03;1.15;;;0.75;;
35679;SDS011;21803;53.586;10.040;2023-02-04T00:12:30;1.70;;;0.90;;
35679;SDS011;21803;53.586;10.040;2023-02-04T00:14:56;2.63;;;1.00;;
35679;SDS011;21803;53.586;10.040;2023-02-04T00:17:22;1.50;;;0.88;;
35679;SDS011;21803;53.586;10.040;2023-02-04T00:19:47;2.03;;;0.80;;
35679;SDS011;21803;53.586;10.040;2023-02-04T00:22:13;1.20;;;0.70;;
35679;SDS011;21803;53.586;10.040;2023-02-04T00:24:38;2.22;;;0.80;;
35679;SDS011;21803;53.586;10.040;2023-02-04T00:27:06;1.70;;;0.90;;
35679;SDS011;21803;53.586;10.040;2023-02-04T00:29:32;2.22;;;0.88;;
35679;SDS011;21803;53.586;10.040;2023-02-04T00:31:58;3.08;;;1.23;;
35679;SDS011;21803;53.586;10.040;2023-02-04T00:34:23;2.08;;;0.90;;
35679;SDS011;21803;53.586;10.040;2023-02-04T00:36:49;1.70;;;0.80;;
35679;SDS011;21803;53.586;10.040;2023-02-04T00:39:14;1.35;;;0.95;;
35679;SDS011;21803;53.586;10.040;2023-02-04T00:41:40;1.48;;;0.73;;
35679;SDS011;21803;53.586;10.040;2023-02-04T00:44:06;2.97;;;1.05;;
35679;SDS011;21803;53.586;10.040;2023-02-04T00:46:31;1.65;;;0.88;;
35679;SDS011;21803;53.586;10.040;2023-02-04T00:48:57;1.70;;;0.90;;
35679;SDS011;21803;53.586;10.040;2023-02-04T00:51:22;1.58;;;0.82;;
35679;SDS011;21803;53.586;10.040;2023-02-04T00:53:48;2.45;;;1.02;;
35679;SDS011;21803;53.586;10.040;2023-02-04T00:56:13;1.95;;;0.93;;
35679;SDS011;21803;53.586;10.040;2023-02-04T00:58:39;2.47;;;1.10;;
35679;SDS011;21803;53.586;10.040;2023-02-04T01:01:04;1.48;;;0.82;;
35679;SDS011;21803;53.586;10.040;2023-02-04T01:03:30;1.40;;;0.70;;
35679;SDS011;21803;53.586;10.040;2023-02-04T01:05:55;1.65;;;0.85;;
35679;SDS011;21803;53.586;10.040;2023-02-04T01:08:21;2.20;;;0.90;;
35679;SDS011;21803;53.586;10.040;2023-02-04T01:10:46;1.52;;;0.70;;
35679;SDS011;21803;53.586;10.040;2023-02-04T01:13:12;2.45;;;0.98;;
35679;SDS011;21803;53.586;10.040;2023-02-04T01:15:37;1.80;;;0.95;;
35679;SDS011;21803;53.586;10.040;2023-02-04T01:18:03;1.88;;;0.90;;
35679;SDS011;21803;53.586;10.040;2023-02-04T01:20:28;1.90;;;0.90;;
35679;SDS011;21803;53.586;10.040;2023-02-04T01:22:54;1.50;;;0.80;;
35679;SDS011;21803;53.586;10.040;2023-02-04T01:25:19;1.38;;;0.80;;
35679;SDS011;21803;53.586;10.040;2023-02-04T01:27:45;1.27;;;0.68;;
35679;SDS011;21803;53.586;10.040;2023-02-04T01:30:11;1.77;;;0.80;;
35679;SDS011;21803;53.586;10.040;2023-02-04T01:32:38;2.45;;;1.10;;
35679;SDS011;21803;53.586;10.040;2023-02-04T01:35:04;2.30;;;0.90;;
35679;SDS011;21803;53.586;10.040;2023-02-04T01:37:30;1.52;;;0.80;;
35679;SDS011;21803;53.586;10.040;2023-02-04T01:39:55;1.55;;;0.95;;
35679;SDS011;21803;53.586;10.040;2023-02-04T01:42:21;1.13;;;0.70;;
35679;SDS011;21803;53.586;10.040;2023-02-04T01:44:47;2.10;;;0.80;;
35679;SDS011;21803;53.586;10.040;2023-02-04T01:47:13;2.03;;;0.93;;
35679;SDS011;21803;53.586;10.040;2023-02-04T01:49:38;1.65;;;0.90;;
35679;SDS011;21803;53.586;10.040;2023-02-04T01:52:04;2.17;;;0.90;;
35679;SDS011;21803;53.586;10.040;2023-02-04T01:54:30;1.52;;;0.85;;
35679;SDS011;21803;53.586;10.040;2023-02-04T01:56:56;1.08;;;0.70;;
35679;SDS011;21803;53.586;10.040;2023-02-04T01:59:22;2.88;;;0.70;;
35679;SDS011;21803;53.586;10.040;2023-02-04T02:01:49;0.90;;;0.60;;
35679;SDS011;21803;53.586;10.040;2023-02-04T02:04:19;1.90;;;0.88;;
35679;SDS011;21803;53.586;10.040;2023-02-04T02:06:57;1.30;;;0.80;;
35679;SDS011;21803;53.586;10.040;2023-02-04T02:09:26;1.77;;;0.70;;
35679;SDS011;21803;53.586;10.040;2023-02-04T02:11:52;1.63;;;0.80;;
35679;SDS011;21803;53.586;10.040;2023-02-04T02:14:18;1.88;;;0.85;;
35679;SDS011;21803;53.586;10.040;2023-02-04T02:16:43;1.25;;;0.70;;
35679;SDS011;21803;53.586;10.040;2023-02-04T02:19:10;1.27;;;0.80;;
35679;SDS011;21803;53.586;10.040;2023-02-04T02:21:43;1.25;;;0.55;;
35679;SDS011;21803;53.586;10.040;2023-02-04T02:24:28;1.30;;;0.70;;
35679;SDS011;21803;53.586;10.040;2023-02-04T02:26:56;1.40;;;0.63;;
35679;SDS011;21803;53.586;10.040;2023-02-04T02:29:24;1.35;;;0.70;;
35679;SDS011;21803;53.586;10.040;2023-02-04T02:31:50;1.75;;;0.90;;
35679;SDS011;21803;53.586;10.040;2023-02-04T02:34:16;1.25;;;0.60;;
35679;SDS011;21803;53.586;10.040;2023-02-04T02:36:42;1.13;;;0.63;;
35679;SDS011;21803;53.586;10.040;2023-02-04T02:39:07;1.48;;;0.60;;
35679;SDS011;21803;53.586;10.040;2023-02-04T02:41:33;1.73;;;0.63;;
35679;SDS011;21803;53.586;10.040;2023-02-04T02:43:59;1.20;;;0.80;;
35679;SDS011;21803;53.586;10.040;2023-02-04T02:46:26;1.60;;;0.93;;
35679;SDS011;21803;53.586;10.040;2023-02-04T02:48:51;1.95;;;0.88;;
35679;SDS011;21803;53.586;10.040;2023-02-04T02:51:17;1.27;;;0.70;;
35679;SDS011;21803;53.586;10.040;2023-02-04T02:53:43;1.05;;;0.60;;
35679;SDS011;21803;53.586;10.040;2023-02-04T02:56:10;0.98;;;0.68;;
35679;SDS011;21803;53.586;10.040;2023-02-04T02:58:36;1.02;;;0.70;;
35679;SDS011;21803;53.586;10.040;2023-02-04T03:01:03;2.95;;;0.90;;
35679;SDS011;21803;53.586;10.040;2023-02-04T03:03:35;1.48;;;0.90;;
35679;SDS011;21803;53.586;10.040;2023-02-04T03:06:05;1.50;;;0.80;;
35679;SDS011;21803;53.586;10.040;2023-02-04T03:08:32;0.85;;;0.60;;
35679;SDS011;21803;53.586;10.040;2023-02-04T03:10:58;1.30;;;0.82;;
35679;SDS011;21803;53.586;10.040;2023-02-04T03:13:23;1.85;;;0.68;;
35679;SDS011;21803;53.586;10.040;2023-02-04T03:15:49;1.40;;;0.70;;
35679;SDS011;21803;53.586;10.040;2023-02-04T03:18:15;1.38;;;0.60;;
35679;SDS011;21803;53.586;10.040;2023-02-04T03:20:43;0.73;;;0.52;;
35679;SDS011;21803;53.586;10.040;2023-02-04T03:23:10;1.02;;;0.68;;
35679;SDS011;21803;53.586;10.040;2023-02-04T03:25:36;0.60;;;0.60;;
35679;SDS011;21803;53.586;10.040;2023-02-04T03:28:01;1.67;;;0.80;;
35679;SDS011;21803;53.586;10.040;2023-02-04T03:30:27;1.27;;;0.73;;
35679;SDS011;21803;53.586;10.040;2023-02-04T03:32:53;1.33;;;0.55;;
35679;SDS011;21803;53.586;10.040;2023-02-04T03:35:19;0.73;;;0.60;;
35679;SDS011;21803;53.586;10.040;2023-02-04T03:37:45;1.58;;;0.80;;
35679;SDS011;21803;53.586;10.040;2023-02-04T03:40:11;1.92;;;0.82;;
35679;SDS011;21803;53.586;10.040;2023-02-04T03:42:37;1.63;;;0.80;;
35679;SDS011;21803;53.586;10.040;2023-02-04T03:45:09;1.33;;;0.70;;
35679;SDS011;21803;53.586;10.040;2023-02-04T03:47:34;1.33;;;0.80;;
35679;SDS011;21803;53.586;10.040;2023-02-04T03:50:00;0.70;;;0.50;;
35679;SDS011;21803;53.586;10.040;2023-02-04T03:52:25;0.80;;;0.55;;
35679;SDS011;21803;53.586;10.040;2023-02-04T03:54:51;1.00;;;0.60;;
35679;SDS011;21803;53.586;10.040;2023-02-04T03:57:16;1.08;;;0.70;;
35679;SDS011;21803;53.586;10.040;2023-02-04T03:59:42;0.90;;;0.50;;
35679;SDS011;21803;53.586;10.040;2023-02-04T04:02:07;1.10;;;0.70;;
35679;SDS011;21803;53.586;10.040;2023-02-04T04:04:33;0.82;;;0.55;;
35679;SDS011;21803;53.586;10.040;2023-02-04T04:06:58;1.83;;;0.68;;
35679;SDS011;21803;53.586;10.040;2023-02-04T04:09:24;2.58;;;0.85;;
35679;SDS011;21803;53.586;10.040;2023-02-04T04:11:49;1.00;;;0.60;;
35679;SDS011;21803;53.586;10.040;2023-02-04T04:14:15;1.00;;;0.68;;
35679;SDS011;21803;53.586;10.040;2023-02-04T04:16:40;1.08;;;0.70;;
35679;SDS011;21803;53.586;10.040;2023-02-04T04:19:06;0.93;;;0.60;;
35679;SDS011;21803;53.586;10.040;2023-02-04T04:21:31;1.15;;;0.70;;
35679;SDS011;21803;53.586;10.040;2023-02-04T04:23:57;0.90;;;0.60;;
35679;SDS011;21803;53.586;10.040;2023-02-04T04:26:22;1.05;;;0.50;;
35679;SDS011;21803;53.586;10.040;2023-02-04T04:28:48;0.95;;;0.60;;
35679;SDS011;21803;53.586;10.040;2023-02-04T04:31:14;0.60;;;0.40;;
35679;SDS011;21803;53.586;10.040;2023-02-04T04:33:39;1.92;;;0.60;;
35679;SDS011;21803;53.586;10.040;2023-02-04T04:36:05;0.95;;;0.50;;
35679;SDS011;21803;53.586;10.040;2023-02-04T04:38:31;1.02;;;0.60;;
35679;SDS011;21803;53.586;10.040;2023-02-04T04:40:57;0.85;;;0.50;;
35679;SDS011;21803;53.586;10.040;2023-02-04T04:43:22;0.70;;;0.52;;
35679;SDS011;21803;53.586;10.040;2023-02-04T04:45:48;1.05;;;0.60;;
35679;SDS011;21803;53.586;10.040;2023-02-04T04:48:13;0.82;;;0.52;;
35679;SDS011;21803;53.586;10.040;2023-02-04T04:50:39;1.08;;;0.68;;
35679;SDS011;21803;53.586;10.040;2023-02-04T04:53:04;1.25;;;0.73;;
35679;SDS011;21803;53.586;10.040;2023-02-04T04:55:35;1.25;;;0.65;;
35679;SDS011;21803;53.586;10.040;2023-02-04T04:58:04;0.63;;;0.52;;
35679;SDS011;21803;53.586;10.040;2023-02-04T05:00:31;0.90;;;0.70;;
35679;SDS011;21803;53.586;10.040;2023-02-04T05:02:56;1.42;;;0.60;;
35679;SDS011;21803;53.586;10.040;2023-02-04T05:05:22;0.60;;;0.50;;
35679;SDS011;21803;53.586;10.040;2023-02-04T05:07:47;0.90;;;0.55;;
35679;SDS011;21803;53.586;10.040;2023-02-04T05:10:13;0.90;;;0.50;;
35679;SDS011;21803;53.586;10.040;2023-02-04T05:12:39;1.15;;;0.50;;
35679;SDS011;21803;53.586;10.040;2023-02-04T05:15:04;1.13;;;0.45;;
35679;SDS011;21803;53.586;10.040;2023-02-04T05:17:30;0.90;;;0.55;;
35679;SDS011;21803;53.586;10.040;2023-02-04T05:19:55;0.88;;;0.60;;
35679;SDS011;21803;53.586;10.040;2023-02-04T05:22:21;0.82;;;0.50;;
35679;SDS011;21803;53.586;10.040;2023-02-04T05:24:46;0.63;;;0.60;;
35679;SDS011;21803;53.586;10.040;2023-02-04T05:27:12;0.82;;;0.45;;
35679;SDS011;21803;53.586;10.040;2023-02-04T05:29:37;0.80;;;0.65;;
35679;SDS011;21803;53.586;10.040;2023-02-04T05:32:03;1.23;;;0.60;;
35679;SDS011;21803;53.586;10.040;2023-02-04T05:34:28;1.00;;;0.50;;
35679;SDS011;21803;53.586;10.040;2023-02-04T05:36:54;0.82;;;0.60;;
35679;SDS011;21803;53.586;10.040;2023-02-04T05:39:19;1.02;;;0.50;;
35679;SDS011;21803;53.586;10.040;2023-02-04T05:41:45;0.70;;;0.57;;
35679;SDS011;21803;53.586;10.040;2023-02-04T05:44:10;0.90;;;0.52;;
35679;SDS011;21803;53.586;10.040;2023-02-04T05:46:36;0.98;;;0.73;;
35679;SDS011;21803;53.586;10.040;2023-02-04T05:49:03;1.38;;;0.65;;
35679;SDS011;21803;53.586;10.040;2023-02-04T05:51:28;0.63;;;0.55;;
35679;SDS011;21803;53.586;10.040;2023-02-04T05:53:54;0.98;;;0.50;;
35679;SDS011;21803;53.586;10.040;2023-02-04T05:56:19;0.57;;;0.50;;
35679;SDS011;21803;53.586;10.040;2023-02-04T05:58:45;1.00;;;0.50;;
35679;SDS011;21803;53.586;10.040;2023-02-04T06:01:11;0.98;;;0.55;;
35679;SDS011;21803;53.586;10.040;2023-02-04T06:03:36;0.60;;;0.50;;
35679;SDS011;21803;53.586;10.040;2023-02-04T06:06:02;0.63;;;0.50;;
35679;SDS011;21803;53.586;10.040;2023-02-04T06:08:27;0.45;;;0.40;;
35679;SDS011;21803;53.586;10.040;2023-02-04T06:10:53;1.27;;;0.65;;
35679;SDS011;21803;53.586;10.040;2023-02-04T06:13:18;0.57;;;0.50;;
35679;SDS011;21803;53.586;10.040;2023-02-04T06:15:44;0.80;;;0.50;;
35679;SDS011;21803;53.586;10.040;2023-02-04T06:18:09;1.17;;;0.65;;
35679;SDS011;21803;53.586;10.040;2023-02-04T06:20:35;0.68;;;0.35;;
35679;SDS011;21803;53.586;10.040;2023-02-04T06:23:01;0.70;;;0.40;;
35679;SDS011;21803;53.586;10.040;2023-02-04T06:25:26;0.40;;;0.40;;
35679;SDS011;21803;53.586;10.040;2023-02-04T06:27:52;0.77;;;0.60;;
35679;SDS011;21803;53.586;10.040;2023-02-04T06:30:17;0.93;;;0.55;;
35679;SDS011;21803;53.586;10.040;2023-02-04T06:32:43;0.95;;;0.60;;
35679;SDS011;21803;53.586;10.040;2023-02-04T06:35:09;0.88;;;0.55;;
35679;SDS011;21803;53.586;10.040;2023-02-04T06:37:36;0.73;;;0.57;;
35679;SDS011;21803;53.586;10.040;2023-02-04T06:40:02;0.57;;;0.40;;
35679;SDS011;21803;53.586;10.040;2023-02-04T06:42:29;0.65;;;0.52;;
35679;SDS011;21803;53.586;10.040;2023-02-04T06:44:54;0.50;;;0.30;;
35679;SDS011;21803;53.586;10.040;2023-02-04T06:47:20;0.57;;;0.40;;
35679;SDS011;21803;53.586;10.040;2023-02-04T06:49:46;0.75;;;0.60;;
35679;SDS011;21803;53.586;10.040;2023-02-04T06:52:11;0.80;;;0.50;;
35679;SDS011;21803;53.586;10.040;2023-02-04T06:54:37;0.65;;;0.65;;
35679;SDS011;21803;53.586;10.040;2023-02-04T06:57:02;0.70;;;0.50;;
35679;SDS011;21803;53.586;10.040;2023-02-04T06:59:34;0.50;;;0.50;;
35679;SDS011;21803;53.586;10.040;2023-02-04T07:02:01;0.80;;;0.50;;
35679;SDS011;21803;53.586;10.040;2023-02-04T07:04:28;0.70;;;0.57;;
35679;SDS011;21803;53.586;10.040;2023-02-04T07:06:53;0.57;;;0.40;;
35679;SDS011;21803;53.586;10.040;2023-02-04T07:09:19;1.25;;;0.50;;
35679;SDS011;21803;53.586;10.040;2023-02-04T07:11:44;0.75;;;0.40;;
35679;SDS011;21803;53.586;10.040;2023-02-04T07:14:10;0.45;;;0.40;;
35679;SDS011;21803;53.586;10.040;2023-02-04T07:16:35;0.63;;;0.50;;
35679;SDS011;21803;53.586;10.040;2023-02-04T07:19:01;1.35;;;0.70;;
35679;SDS011;21803;53.586;10.040;2023-02-04T07:21:27;0.75;;;0.50;;
35679;SDS011;21803;53.586;10.040;2023-02-04T07:23:53;0.68;;;0.40;;
35679;SDS011;21803;53.586;10.040;2023-02-04T07:26:18;0.50;;;0.40;;
35679;SDS011;21803;53.586;10.040;2023-02-04T07:28:44;0.40;;;0.40;;
35679;SDS011;21803;53.586;10.040;2023-02-04T07:31:10;0.98;;;0.50;;
35679;SDS011;21803;53.586;10.040;2023-02-04T07:33:35;0.40;;;0.30;;
35679;SDS011;21803;53.586;10.040;2023-02-04T07:36:01;0.50;;;0.50;;
35679;SDS011;21803;53.586;10.040;2023-02-04T07:38:27;0.85;;;0.60;;
35679;SDS011;21803;53.586;10.040;2023-02-04T07:40:52;0.88;;;0.57;;
35679;SDS011;21803;53.586;10.040;2023-02-04T07:43:18;0.30;;;0.30;;
35679;SDS011;21803;53.586;10.040;2023-02-04T07:45:43;0.63;;;0.50;;
35679;SDS011;21803;53.586;10.040;2023-02-04T07:48:09;0.57;;;0.50;;
35679;SDS011;21803;53.586;10.040;2023-02-04T07:50:34;0.60;;;0.47;;
35679;SDS011;21803;53.586;10.040;2023-02-04T07:53:01;0.52;;;0.40;;
35679;SDS011;21803;53.586;10.040;2023-02-04T07:55:27;0.43;;;0.30;;
35679;SDS011;21803;53.586;10.040;2023-02-04T07:57:52;0.65;;;0.40;;
35679;SDS011;21803;53.586;10.040;2023-02-04T08:00:18;0.40;;;0.40;;
35679;SDS011;21803;53.586;10.040;2023-02-04T08:02:44;0.98;;;0.60;;
35679;SDS011;21803;53.586;10.040;2023-02-04T08:05:09;0.63;;;0.55;;
35679;SDS011;21803;53.586;10.040;2023-02-04T08:07:35;0.40;;;0.40;;
35679;SDS011;21803;53.586;10.040;2023-02-04T08:10:01;0.40;;;0.40;;
35679;SDS011;21803;53.586;10.040;2023-02-04T08:12:27;0.50;;;0.50;;
35679;SDS011;21803;53.586;10.040;2023-02-04T08:14:53;0.90;;;0.50;;
35679;SDS011;21803;53.586;10.040;2023-02-04T08:17:18;0.88;;;0.50;;
35679;SDS011;21803;53.586;10.040;2023-02-04T08:19:44;0.43;;;0.43;;
35679;SDS011;21803;53.586;10.040;2023-02-04T08:22:09;0.55;;;0.40;;
35679;SDS011;21803;53.586;10.040;2023-02-04T08:24:36;0.45;;;0.40;;
35679;SDS011;21803;53.586;10.040;2023-02-04T08:27:01;0.88;;;0.50;;
35679;SDS011;21803;53.586;10.040;2023-02-04T08:29:27;0.35;;;0.35;;
35679;SDS011;21803;53.586;10.040;2023-02-04T08:31:52;0.70;;;0.47;;
35679;SDS011;21803;53.586;10.040;2023-02-04T08:34:18;0.82;;;0.50;;
35679;SDS011;21803;53.586;10.040;2023-02-04T08:36:43;0.45;;;0.40;;
35679;SDS011;21803;53.586;10.040;2023-02-04T08:39:09;0.73;;;0.43;;
35679;SDS011;21803;53.586;10.040;2023-02-04T08:41:36;0.70;;;0.50;;
35679;SDS011;21803;53.586;10.040;2023-02-04T08:44:01;0.60;;;0.40;;
35679;SDS011;21803;53.586;10.040;2023-02-04T08:46:27;1.10;;;0.52;;
35679;SDS011;21803;53.586;10.040;2023-02-04T08:48:53;0.52;;;0.50;;
35679;SDS011;21803;53.586;10.040;2023-02-04T08:51:18;0.60;;;0.50;;
35679;SDS011;21803;53.586;10.040;2023-02-04T08:53:44;0.50;;;0.50;;
35679;SDS011;21803;53.586;10.040;2023-02-04T08:56:09;1.08;;;0.60;;
35679;SDS011;21803;53.586;10.040;2023-02-04T08:58:40;0.65;;;0.47;;
35679;SDS011;21803;53.586;10.040;2023-02-04T09:01:06;0.70;;;0.40;;
35679;SDS011;21803;53.586;10.040;2023-02-04T09:03:31;0.77;;;0.40;;
35679;SDS011;21803;53.586;10.040;2023-02-04T09:05:57;0.57;;;0.40;;
35679;SDS011;21803;53.586;10.040;2023-02-04T09:08:22;0.43;;;0.38;;
35679;SDS011;21803;53.586;10.040;2023-02-04T09:10:48;0.63;;;0.40;;
35679;SDS011;21803;53.586;10.040;2023-02-04T09:13:13;0.40;;;0.40;;
35679;SDS011;21803;53.586;10.040;2023-02-04T09:15:39;0.50;;;0.30;;
35679;SDS011;21803;53.586;10.040;2023-02-04T09:18:05;1.83;;;0.45;;
35679;SDS011;21803;53.586;10.040;2023-02-04T09:20:39;0.38;;;0.38;;
35679;SDS011;21803;53.586;10.040;2023-02-04T09:23:04;0.68;;;0.40;;
35679;SDS011;21803;53.586;10.040;2023-02-04T09:25:34;0.75;;;0.40;;
35679;SDS011;21803;53.586;10.040;2023-02-04T09:28:00;0.52;;;0.45;;
35679;SDS011;21803;53.586;10.040;2023-02-04T09:30:25;0.68;;;0.50;;
35679;SDS011;21803;53.586;10.040;2023-02-04T09:32:51;1.45;;;0.50;;
35679;SDS011;21803;53.586;10.040;2023-02-04T09:35:16;0.45;;;0.32;;
35679;SDS011;21803;53.586;10.040;2023-02-04T09:37:42;1.13;;;0.40;;
35679;SDS011;21803;53.586;10.040;2023-02-04T09:40:08;0.40;;;0.32;;
35679;SDS011;21803;53.586;10.040;2023-02-04T09:42:38;0.52;;;0.40;;
35679;SDS011;21803;53.586;10.040;2023-02-04T09:45:03;0.70;;;0.50;;
35679;SDS011;21803;53.586;10.040;2023-02-04T09:47:29;0.50;;;0.40;;
35679;SDS011;21803;53.586;10.040;2023-02-04T09:49:55;0.50;;;0.40;;
35679;SDS011;21803;53.586;10.040;2023-02-04T09:52:21;0.63;;;0.45;;
35679;SDS011;21803;53.586;10.040;2023-02-04T09:54:48;1.15;;;0.30;;
35679;SDS011;21803;53.586;10.040;2023-02-04T09:57:15;0.65;;;0.50;;
35679;SDS011;21803;53.586;10.040;2023-02-04T09:59:43;0.30;;;0.30;;
35679;SDS011;21803;53.586;10.040;2023-02-04T10:02:27;0.80;;;0.60;;
35679;SDS011;21803;53.586;10.040;2023-02-04T10:04:54;0.50;;;0.43;;
35679;SDS011;21803;53.586;10.040;2023-02-04T10:07:21;0.50;;;0.43;;
35679;SDS011;21803;53.586;10.040;2023-02-04T10:09:49;0.40;;;0.40;;
35679;SDS011;21803;53.586;10.040;2023-02-04T10:12:16;0.80;;;0.50;;
35679;SDS011;21803;53.586;10.040;2023-02-04T10:14:42;0.50;;;0.38;;
35679;SDS011;21803;53.586;10.040;2023-02-04T10:17:08;0.50;;;0.38;;
35679;SDS011;21803;53.586;10.040;2023-02-04T10:19:35;0.75;;;0.50;;
35679;SDS011;21803;53.586;10.040;2023-02-04T10:22:01;0.40;;;0.40;;
35679;SDS011;21803;53.586;10.040;2023-02-04T10:24:31;1.48;;;0.55;;
35679;SDS011;21803;53.586;10.040;2023-02-04T10:27:08;0.63;;;0.30;;
35679;SDS011;21803;53.586;10.040;2023-02-04T10:29:34;0.70;;;0.50;;
35679;SDS011;21803;53.586;10.040;2023-02-04T10:32:00;0.80;;;0.50;;
35679;SDS011;21803;53.586;10.040;2023-02-04T10:34:33;0.80;;;0.30;;
35679;SDS011;21803;53.586;10.040;2023-02-04T10:37:19;0.38;;;0.38;;
35679;SDS011;21803;53.586;10.040;2023-02-04T10:39:46;1.05;;;0.40;;
35679;SDS011;21803;53.586;10.040;2023-02-04T10:42:34;0.45;;;0.40;;
35679;SDS011;21803;53.586;10.040;2023-02-04T10:44:58;0.57;;;0.43;;
35679;SDS011;21803;53.586;10.040;2023-02-04T10:47:25;1.17;;;0.40;;
35679;SDS011;21803;53.586;10.040;2023-02-04T10:50:01;0.85;;;0.50;;
35679;SDS011;21803;53.586;10.040;2023-02-04T10:52:49;0.55;;;0.40;;
35679;SDS011;21803;53.586;10.040;2023-02-04T10:55:40;0.82;;;0.50;;
35679;SDS011;21803;53.586;10.040;2023-02-04T10:58:08;0.45;;;0.30;;
35679;SDS011;21803;53.586;10.040;2023-02-04T11:00:36;0.47;;;0.40;;
35679;SDS011;21803;53.586;10.040;2023-02-04T11:05:32;0.47;;;0.30;;
35679;SDS011;21803;53.586;10.040;2023-02-04T11:07:59;0.57;;;0.40;;
35679;SDS011;21803;53.586;10.040;2023-02-04T11:10:29;0.50;;;0.45;;
35679;SDS011;21803;53.586;10.040;2023-02-04T11:18:48;0.60;;;0.45;;
35679;SDS011;21803;53.586;10.040;2023-02-04T11:26:33;0.30;;;0.30;;
35679;SDS011;21803;53.586;10.040;2023-02-04T11:31:27;0.82;;;0.50;;
35679;SDS011;21803;53.586;10.040;2023-02-04T11:34:09;0.60;;;0.60;;
35679;SDS011;21803;53.586;10.040;2023-02-04T11:39:32;0.55;;;0.47;;
35679;SDS011;21803;53.586;10.040;2023-02-04T11:42:03;0.38;;;0.38;;
35679;SDS011;21803;53.586;10.040;2023-02-04T11:44:30;0.85;;;0.40;;
35679;SDS011;21803;53.586;10.040;2023-02-04T11:46:57;0.47;;;0.40;;
35679;SDS011;21803;53.586;10.040;2023-02-04T11:49:25;0.30;;;0.30;;
35679;SDS011;21803;53.586;10.040;2023-02-04T11:52:02;0.60;;;0.40;;
35679;SDS011;21803;53.586;10.040;2023-02-04T11:54:32;0.30;;;0.30;;
35679;SDS011;21803;53.586;10.040;2023-02-04T11:56:58;0.40;;;0.40;;
35679;SDS011;21803;53.586;10.040;2023-02-04T11:59:25;0.50;;;0.50;;
35679;SDS011;21803;53.586;10.040;2023-02-04T12:01:51;0.82;;;0.40;;
35679;SDS011;21803;53.586;10.040;2023-02-04T12:04:28;0.80;;;0.50;;
35679;SDS011;21803;53.586;10.040;2023-02-04T12:07:00;1.55;;;0.47;;
35679;SDS011;21803;53.586;10.040;2023-02-04T12:09:28;1.40;;;0.55;;
35679;SDS011;21803;53.586;10.040;2023-02-04T12:11:56;0.93;;;0.47;;
35679;SDS011;21803;53.586;10.040;2023-02-04T12:14:33;0.60;;;0.50;;
35679;SDS011;21803;53.586;10.040;2023-02-04T12:17:11;0.43;;;0.38;;
35679;SDS011;21803;53.586;10.040;2023-02-04T12:19:41;0.30;;;0.30;;
35679;SDS011;21803;53.586;10.040;2023-02-04T12:22:07;1.13;;;0.52;;
35679;SDS011;21803;53.586;10.040;2023-02-04T12:24:33;0.52;;;0.50;;
35679;SDS011;21803;53.586;10.040;2023-02-04T12:26:59;0.30;;;0.30;;
35679;SDS011;21803;53.586;10.040;2023-02-04T12:29:24;0.68;;;0.50;;
35679;SDS011;21803;53.586;10.040;2023-02-04T12:31:50;0.50;;;0.43;;
35679;SDS011;21803;53.586;10.040;2023-02-04T12:34:15;0.47;;;0.47;;
35679;SDS011;21803;53.586;10.040;2023-02-04T12:36:41;0.45;;;0.32;;
35679;SDS011;21803;53.586;10.040;2023-02-04T12:39:07;1.42;;;0.40;;
35679;SDS011;21803;53.586;10.040;2023-02-04T12:41:34;0.60;;;0.50;;
35679;SDS011;21803;53.586;10.040;2023-02-04T12:44:00;0.40;;;0.40;;
35679;SDS011;21803;53.586;10.040;2023-02-04T12:46:26;0.47;;;0.40;;
35679;SDS011;21803;53.586;10.040;2023-02-04T12:48:52;0.32;;;0.32;;
35679;SDS011;21803;53.586;10.040;2023-02-04T12:51:18;0.30;;;0.30;;
35679;SDS011;21803;53.586;10.040;2023-02-04T12:53:45;0.68;;;0.43;;
35679;SDS011;21803;53.586;10.040;2023-02-04T12:56:12;0.43;;;0.40;;
35679;SDS011;21803;53.586;10.040;2023-02-04T12:58:38;1.30;;;0.50;;
35679;SDS011;21803;53.586;10.040;2023-02-04T13:01:03;0.88;;;0.40;;
35679;SDS011;21803;53.586;10.040;2023-02-04T13:03:29;0.45;;;0.40;;
35679;SDS011;21803;53.586;10.040;2023-02-04T13:05:55;0.68;;;0.43;;
35679;SDS011;21803;53.586;10.040;2023-02-04T13:08:21;0.35;;;0.35;;
35679;SDS011;21803;53.586;10.040;2023-02-04T13:10:47;0.38;;;0.20;;
35679;SDS011;21803;53.586;10.040;2023-02-04T13:13:16;0.60;;;0.47;;
35679;SDS011;21803;53.586;10.040;2023-02-04T13:15:45;0.40;;;0.40;;
35679;SDS011;21803;53.586;10.040;2023-02-04T13:18:11;0.40;;;0.40;;
35679;SDS011;21803;53.586;10.040;2023-02-04T13:20:36;0.30;;;0.30;;
35679;SDS011;21803;53.586;10.040;2023-02-04T13:23:02;0.30;;;0.30;;
35679;SDS011;21803;53.586;10.040;2023-02-04T13:25:28;1.17;;;0.63;;
35679;SDS011;21803;53.586;10.040;2023-02-04T13:27:53;0.60;;;0.40;;
35679;SDS011;21803;53.586;10.040;2023-02-04T13:30:19;0.88;;;0.38;;
35679;SDS011;21803;53.586;10.040;2023-02-04T13:32:44;0.40;;;0.40;;
35679;SDS011;21803;53.586;10.040;2023-02-04T13:35:10;0.60;;;0.30;;
35679;SDS011;21803;53.586;10.040;2023-02-04T13:37:36;0.20;;;0.20;;
35679;SDS011;21803;53.586;10.040;2023-02-04T13:40:03;0.38;;;0.30;;
35679;SDS011;21803;53.586;10.040;2023-02-04T13:42:32;0.43;;;0.43;;
35679;SDS011;21803;53.586;10.040;2023-02-04T13:44:57;0.45;;;0.40;;
35679;SDS011;21803;53.586;10.040;2023-02-04T13:47:23;0.40;;;0.40;;
35679;SDS011;21803;53.586;10.040;2023-02-04T13:49:48;0.30;;;0.30;;
35679;SDS011;21803;53.586;10.040;2023-02-04T13:52:14;0.68;;;0.50;;
35679;SDS011;21803;53.586;10.040;2023-02-04T13:54:42;0.95;;;0.43;;
35679;SDS011;21803;53.586;10.040;2023-02-04T13:57:08;0.40;;;0.40;;
35679;SDS011;21803;53.586;10.040;2023-02-04T13:59:33;0.30;;;0.30;;
35679;SDS011;21803;53.586;10.040;2023-02-04T14:01:59;0.40;;;0.22;;
35679;SDS011;21803;53.586;10.040;2023-02-04T14:04:24;0.40;;;0.40;;
35679;SDS011;21803;53.586;10.040;2023-02-04T14:06:51;0.40;;;0.40;;
35679;SDS011;21803;53.586;10.040;2023-02-04T14:09:16;0.30;;;0.30;;
35679;SDS011;21803;53.586;10.040;2023-02-04T14:11:42;0.40;;;0.30;;
35679;SDS011;21803;53.586;10.040;2023-02-04T14:14:08;0.45;;;0.45;;
35679;SDS011;21803;53.586;10.040;2023-02-04T14:16:33;0.38;;;0.30;;
35679;SDS011;21803;53.586;10.040;2023-02-04T14:18:59;0.63;;;0.50;;
35679;SDS011;21803;53.586;10.040;2023-02-04T14:21:24;0.40;;;0.40;;
35679;SDS011;21803;53.586;10.040;2023-02-04T14:23:50;0.30;;;0.30;;
35679;SDS011;21803;53.586;10.040;2023-02-04T14:26:15;0.40;;;0.40;;
35679;SDS011;21803;53.586;10.040;2023-02-04T14:28:41;0.47;;;0.38;;
35679;SDS011;21803;53.586;10.040;2023-02-04T14:31:06;0.40;;;0.40;;
35679;SDS011;21803;53.586;10.040;2023-02-04T14:33:32;0.50;;;0.50;;
35679;SDS011;21803;53.586;10.040;2023-02-04T14:35:57;0.60;;;0.40;;
35679;SDS011;21803;53.586;10.040;2023-02-04T14:38:23;0.57;;;0.47;;
35679;SDS011;21803;53.586;10.040;2023-02-04T14:40:54;0.50;;;0.30;;
35679;SDS011;21803;53.586;10.040;2023-02-04T14:43:20;0.60;;;0.57;;
35679;SDS011;21803;53.586;10.040;2023-02-04T14:45:45;0.40;;;0.40;;
35679;SDS011;21803;53.586;10.040;2023-02-04T14:48:11;0.68;;;0.60;;